createdAt,value
2024-01-10T00:01:01.886Z,25.03
2024-01-10T00:02:05.219Z,25.02
2024-01-10T00:03:10.141Z,25.02
2024-01-10T00:04:14.796Z,25.01
2024-01-10T00:05:20.877Z,25
2024-01-10T00:06:24.745Z,24.99
2024-01-10T00:07:28.213Z,24.96
2024-01-10T00:08:31.503Z,24.96
2024-01-10T00:09:35.178Z,24.99
2024-01-10T00:10:38.483Z,24.99
2024-01-10T00:11:41.844Z,24.96
2024-01-10T00:12:46.631Z,24.96
2024-01-10T00:13:49.796Z,24.97
2024-01-10T00:14:53.057Z,24.98
2024-01-10T00:15:56.164Z,24.95
2024-01-10T00:16:59.493Z,24.93
2024-01-10T00:18:03.009Z,24.92
2024-01-10T00:19:06.371Z,24.89
2024-01-10T00:20:09.757Z,24.89
2024-01-10T00:21:13.113Z,24.92
2024-01-10T00:22:16.439Z,24.9
2024-01-10T00:23:21.722Z,24.91
2024-01-10T00:24:25.056Z,24.9
2024-01-10T00:25:28.318Z,24.8
2024-01-10T00:26:31.581Z,24.83
2024-01-10T00:27:34.899Z,24.87
2024-01-10T00:28:38.178Z,24.88
2024-01-10T00:29:41.584Z,24.85
2024-01-10T00:30:44.910Z,24.84
2024-01-10T00:31:48.373Z,24.87
2024-01-10T00:32:51.829Z,24.89
2024-01-10T00:33:55.585Z,24.91
2024-01-10T00:34:59.175Z,24.84
2024-01-10T00:36:02.540Z,24.81
2024-01-10T00:37:05.817Z,24.84
2024-01-10T00:38:09.091Z,24.84
2024-01-10T00:39:12.702Z,24.8
2024-01-10T00:40:16.087Z,24.85
2024-01-10T00:41:19.448Z,24.85
2024-01-10T00:42:22.899Z,24.84
2024-01-10T00:43:26.133Z,24.77
2024-01-10T00:44:29.416Z,24.81
2024-01-10T00:45:32.695Z,24.82
2024-01-10T00:46:37.440Z,24.84
2024-01-10T00:47:40.801Z,24.83
2024-01-10T00:48:44.260Z,24.81
2024-01-10T00:49:47.663Z,24.81
2024-01-10T00:50:50.908Z,24.72
2024-01-10T00:51:54.095Z,24.67
2024-01-10T00:52:57.507Z,24.72
2024-01-10T00:54:00.992Z,24.75
2024-01-10T00:55:04.133Z,24.71
2024-01-10T00:56:07.615Z,24.68
2024-01-10T00:57:11.408Z,24.73
2024-01-10T00:58:14.764Z,24.72
2024-01-10T00:59:17.977Z,24.66
2024-01-10T01:00:21.639Z,24.68
2024-01-10T01:01:24.902Z,24.76
2024-01-10T01:02:28.204Z,24.77
2024-01-10T01:03:31.795Z,24.72
2024-01-10T01:04:35.387Z,24.7
2024-01-10T01:05:39.292Z,24.63
2024-01-10T01:06:43.054Z,24.6
2024-01-10T01:07:46.391Z,24.55
2024-01-10T01:08:49.817Z,24.57
2024-01-10T01:09:53.079Z,24.61
2024-01-10T01:10:57.913Z,24.61
2024-01-10T01:12:01.205Z,24.65
2024-01-10T01:13:04.491Z,24.66
2024-01-10T01:14:07.663Z,24.65
2024-01-10T01:15:11.173Z,24.63
2024-01-10T01:16:14.556Z,24.56
2024-01-10T01:17:17.995Z,24.57
2024-01-10T01:18:21.538Z,24.55
2024-01-10T01:19:25.129Z,24.54
2024-01-10T01:20:31.432Z,24.59
2024-01-10T01:21:35.250Z,24.7
2024-01-10T01:22:38.647Z,24.6
2024-01-10T01:23:42.871Z,24.57
2024-01-10T01:24:47.112Z,24.55
2024-01-10T01:25:50.401Z,24.56
2024-01-10T01:26:53.786Z,24.6
2024-01-10T01:27:57.084Z,24.56
2024-01-10T01:29:00.413Z,24.53
2024-01-10T01:30:03.956Z,24.54
2024-01-10T01:31:07.523Z,24.58
2024-01-10T01:32:11.133Z,24.54
2024-01-10T01:33:14.647Z,24.54
2024-01-10T01:34:18.310Z,24.51
2024-01-10T01:35:21.754Z,24.49
2024-01-10T01:36:25.214Z,24.51
2024-01-10T01:37:28.440Z,24.45
2024-01-10T01:38:31.702Z,24.46
2024-01-10T01:39:34.929Z,24.48
2024-01-10T01:40:38.246Z,24.45
2024-01-10T01:41:41.565Z,24.47
2024-01-10T01:42:44.952Z,24.46
2024-01-10T01:43:48.276Z,24.46
2024-01-10T01:44:51.718Z,24.45
2024-01-10T01:45:55.148Z,24.46
2024-01-10T01:47:00.112Z,24.42
2024-01-10T01:48:05.174Z,24.49
2024-01-10T01:49:08.520Z,24.47
2024-01-10T01:50:12.305Z,24.42
2024-01-10T01:51:15.905Z,24.45
2024-01-10T01:52:19.220Z,24.51
2024-01-10T01:53:24.538Z,24.47
2024-01-10T01:54:28.044Z,24.47
2024-01-10T01:55:31.364Z,24.48
2024-01-10T01:56:34.700Z,24.43
2024-01-10T01:57:37.926Z,24.41
2024-01-10T01:58:41.311Z,24.41
2024-01-10T01:59:44.941Z,24.4
2024-01-10T02:00:49.717Z,24.41
2024-01-10T02:01:52.864Z,24.43
2024-01-10T02:02:57.726Z,24.41
2024-01-10T02:04:01.278Z,24.43
2024-01-10T02:05:04.627Z,24.4
2024-01-10T02:06:08.482Z,24.42
2024-01-10T02:07:11.870Z,24.35
2024-01-10T02:08:16.759Z,24.36
2024-01-10T02:09:20.284Z,24.35
2024-01-10T02:10:23.610Z,24.36
2024-01-10T02:11:26.937Z,24.41
2024-01-10T02:12:30.565Z,24.39
2024-01-10T02:13:34.094Z,24.35
2024-01-10T02:14:37.925Z,24.39
2024-01-10T02:15:41.259Z,24.43
2024-01-10T02:16:44.574Z,24.39
2024-01-10T02:17:48.064Z,24.41
2024-01-10T02:18:51.445Z,24.43
2024-01-10T02:19:54.933Z,24.38
2024-01-10T02:20:58.376Z,24.37
2024-01-10T02:22:01.704Z,24.36
2024-01-10T02:23:04.934Z,24.39
2024-01-10T02:24:08.701Z,24.4
2024-01-10T02:25:11.902Z,24.38
2024-01-10T02:26:15.229Z,24.37
2024-01-10T02:27:18.710Z,24.36
2024-01-10T02:28:22.092Z,24.37
2024-01-10T02:29:26.858Z,24.39
2024-01-10T02:30:30.178Z,24.41
2024-01-10T02:31:33.732Z,24.42
2024-01-10T02:32:37.305Z,24.37
2024-01-10T02:33:40.874Z,24.39
2024-01-10T02:34:44.596Z,24.39
2024-01-10T02:35:47.955Z,24.36
2024-01-10T02:36:51.217Z,24.3
2024-01-10T02:37:54.575Z,24.37
2024-01-10T02:38:59.645Z,24.34
2024-01-10T02:40:03.031Z,24.32
2024-01-10T02:41:06.171Z,24.33
2024-01-10T02:42:09.599Z,24.29
2024-01-10T02:43:14.364Z,24.29
2024-01-10T02:44:17.658Z,24.28
2024-01-10T02:45:21.150Z,24.34
2024-01-10T02:46:24.483Z,24.33
2024-01-10T02:47:27.946Z,24.32
2024-01-10T02:48:31.515Z,24.29
2024-01-10T02:49:35.042Z,24.29
2024-01-10T02:50:38.539Z,24.26
2024-01-10T02:51:41.941Z,24.31
2024-01-10T02:52:45.278Z,24.29
2024-01-10T02:53:48.426Z,24.29
2024-01-10T02:54:51.634Z,24.32
2024-01-10T02:55:56.538Z,24.33
2024-01-10T02:56:59.851Z,24.3
2024-01-10T02:58:02.994Z,24.36
2024-01-10T02:59:06.278Z,24.34
2024-01-10T03:00:09.724Z,24.3
2024-01-10T03:01:13.068Z,24.3
2024-01-10T03:02:16.752Z,24.35
2024-01-10T03:03:20.104Z,24.32
2024-01-10T03:04:23.758Z,24.27
2024-01-10T03:05:27.085Z,24.27
2024-01-10T03:06:30.569Z,24.24
2024-01-10T03:07:33.964Z,24.26
2024-01-10T03:08:37.245Z,24.25
2024-01-10T03:09:40.742Z,24.27
2024-01-10T03:10:45.060Z,24.26
2024-01-10T03:11:49.679Z,24.28
2024-01-10T03:12:52.823Z,24.25
2024-01-10T03:13:56.097Z,24.26
2024-01-10T03:14:59.556Z,24.28
2024-01-10T03:16:02.818Z,24.27
2024-01-10T03:17:05.982Z,24.34
2024-01-10T03:18:09.674Z,24.28
2024-01-10T03:19:13.641Z,24.27
2024-01-10T03:20:17.256Z,24.26
2024-01-10T03:21:20.913Z,24.24
2024-01-10T03:22:24.177Z,24.31
2024-01-10T03:23:29.112Z,24.28
2024-01-10T03:24:32.713Z,24.3
2024-01-10T03:25:35.994Z,24.28
2024-01-10T03:26:39.475Z,24.26
2024-01-10T03:27:42.892Z,24.28
2024-01-10T03:28:46.226Z,24.28
2024-01-10T03:29:49.485Z,24.25
2024-01-10T03:30:52.801Z,24.21
2024-01-10T03:31:56.496Z,24.26
2024-01-10T03:33:00.028Z,24.26
2024-01-10T03:34:03.652Z,24.27
2024-01-10T03:35:07.300Z,24.23
2024-01-10T03:36:10.607Z,24.26
2024-01-10T03:37:13.930Z,24.26
2024-01-10T03:38:17.378Z,24.27
2024-01-10T03:39:21.177Z,24.27
2024-01-10T03:40:24.533Z,24.31
2024-01-10T03:41:27.838Z,24.36
2024-01-10T03:42:31.297Z,24.26
2024-01-10T03:43:34.680Z,24.25
2024-01-10T03:44:37.899Z,24.26
2024-01-10T03:45:41.203Z,24.25
2024-01-10T03:46:44.498Z,24.23
2024-01-10T03:47:47.849Z,24.28
2024-01-10T03:48:51.132Z,24.25
2024-01-10T03:49:54.539Z,24.21
2024-01-10T03:50:57.883Z,24.21
2024-01-10T03:52:01.172Z,24.21
2024-01-10T03:53:04.428Z,24.26
2024-01-10T03:54:08.229Z,24.25
2024-01-10T03:55:13.029Z,24.24
2024-01-10T03:56:16.287Z,24.23
2024-01-10T03:57:19.724Z,24.28
2024-01-10T03:58:24.536Z,24.29
2024-01-10T03:59:27.930Z,24.27
2024-01-10T04:00:31.413Z,24.29
2024-01-10T04:01:34.720Z,24.24
2024-01-10T04:02:37.999Z,24.24
2024-01-10T04:03:43.212Z,24.25
2024-01-10T04:04:46.718Z,24.3
2024-01-10T04:05:50.096Z,24.29
2024-01-10T04:06:53.594Z,24.28
2024-01-10T04:07:56.939Z,24.25
2024-01-10T04:09:00.307Z,24.26
2024-01-10T04:10:03.601Z,24.27
2024-01-10T04:11:06.821Z,24.26
2024-01-10T04:12:10.417Z,24.28
2024-01-10T04:13:13.690Z,24.25
2024-01-10T04:14:18.680Z,24.23
2024-01-10T04:15:22.123Z,24.26
2024-01-10T04:16:25.409Z,24.25
2024-01-10T04:17:28.876Z,24.24
2024-01-10T04:18:32.653Z,24.28
2024-01-10T04:19:36.345Z,24.26
2024-01-10T04:20:39.842Z,24.26
2024-01-10T04:21:43.524Z,24.23
2024-01-10T04:22:48.873Z,24.24
2024-01-10T04:23:52.046Z,24.22
2024-01-10T04:24:55.239Z,24.25
2024-01-10T04:25:58.512Z,24.26
2024-01-10T04:27:02.051Z,24.23
2024-01-10T04:28:05.316Z,24.23
2024-01-10T04:29:08.624Z,24.26
2024-01-10T04:30:12.059Z,24.2
2024-01-10T04:31:15.371Z,24.18
2024-01-10T04:32:18.745Z,24.19
2024-01-10T04:33:24.353Z,24.22
2024-01-10T04:34:28.077Z,24.24
2024-01-10T04:35:31.616Z,24.26
2024-01-10T04:36:35.078Z,24.25
2024-01-10T04:37:38.423Z,24.22
2024-01-10T04:38:41.895Z,24.21
2024-01-10T04:39:45.135Z,24.25
2024-01-10T04:40:48.333Z,24.23
2024-01-10T04:41:51.748Z,24.25
2024-01-10T04:42:55.023Z,24.2
2024-01-10T04:43:58.260Z,24.22
2024-01-10T04:45:01.582Z,24.21
2024-01-10T04:46:04.698Z,24.18
2024-01-10T04:47:08.027Z,24.17
2024-01-10T04:48:11.662Z,24.16
2024-01-10T04:49:15.310Z,24.15
2024-01-10T04:50:18.792Z,24.16
2024-01-10T04:51:22.401Z,24.2
2024-01-10T04:52:25.686Z,24.2
2024-01-10T04:53:29.012Z,24.18
2024-01-10T04:54:33.983Z,24.21
2024-01-10T04:55:37.212Z,24.17
2024-01-10T04:56:40.513Z,24.18
2024-01-10T04:57:43.796Z,24.2
2024-01-10T04:58:47.025Z,24.21
2024-01-10T04:59:50.282Z,24.17
2024-01-10T05:00:53.561Z,24.16
2024-01-10T05:01:57.014Z,24.22
2024-01-10T05:03:00.425Z,24.16
2024-01-10T05:04:03.770Z,24.16
2024-01-10T05:05:07.190Z,24.15
2024-01-10T05:06:10.491Z,24.16
2024-01-10T05:07:13.930Z,24.16
2024-01-10T05:08:17.164Z,24.17
2024-01-10T05:09:20.743Z,24.17
2024-01-10T05:10:24.139Z,24.19
2024-01-10T05:11:27.424Z,24.16
2024-01-10T05:12:31.027Z,24.16
2024-01-10T05:13:35.898Z,24.17
2024-01-10T05:14:39.349Z,24.17
2024-01-10T05:15:42.637Z,24.18
2024-01-10T05:16:45.948Z,24.15
2024-01-10T05:17:49.142Z,24.17
2024-01-10T05:18:52.483Z,24.17
2024-01-10T05:19:55.776Z,24.15
2024-01-10T05:20:59.608Z,24.15
2024-01-10T05:22:04.372Z,24.13
2024-01-10T05:23:08.061Z,24.14
2024-01-10T05:24:13.136Z,24.18
2024-01-10T05:25:16.428Z,24.18
2024-01-10T05:26:21.227Z,24.16
2024-01-10T05:27:24.913Z,24.18
2024-01-10T05:28:28.134Z,24.19
2024-01-10T05:29:31.457Z,24.19
2024-01-10T05:30:34.775Z,24.18
2024-01-10T05:31:38.295Z,24.12
2024-01-10T05:32:41.910Z,24.16
2024-01-10T05:33:46.823Z,24.14
2024-01-10T05:34:50.208Z,24.13
2024-01-10T05:35:54.973Z,24.13
2024-01-10T05:36:58.357Z,24.15
2024-01-10T05:38:01.647Z,24.15
2024-01-10T05:39:05.102Z,24.1
2024-01-10T05:40:08.277Z,24.1
2024-01-10T05:41:11.574Z,24.05
2024-01-10T05:42:15.178Z,24.12
2024-01-10T05:43:18.451Z,24.11
2024-01-10T05:44:23.966Z,24.08
2024-01-10T05:45:27.422Z,24.13
2024-01-10T05:46:30.806Z,24.01
2024-01-10T05:47:34.164Z,24.09
2024-01-10T05:48:37.907Z,24.11
2024-01-10T05:49:41.767Z,24.15
2024-01-10T05:50:45.164Z,24.12
2024-01-10T05:51:50.422Z,24.14
2024-01-10T05:52:55.641Z,24.16
2024-01-10T05:53:58.973Z,24.21
2024-01-10T05:55:02.229Z,24.22
2024-01-10T05:56:05.523Z,24.23
2024-01-10T05:57:09.015Z,24.21
2024-01-10T05:58:12.402Z,24.17
2024-01-10T05:59:15.632Z,24.22
2024-01-10T06:00:19.087Z,24.19
2024-01-10T06:01:22.466Z,24.18
2024-01-10T06:02:26.141Z,24.17
2024-01-10T06:03:29.729Z,24.19
2024-01-10T06:04:33.213Z,24.2
2024-01-10T06:05:38.089Z,24.21
2024-01-10T06:06:41.573Z,24.27
2024-01-10T06:07:45.174Z,24.27
2024-01-10T06:08:48.445Z,24.26
2024-01-10T06:09:51.740Z,24.25
2024-01-10T06:10:55.139Z,24.27
2024-01-10T06:11:58.583Z,24.23
2024-01-10T06:13:01.842Z,24.23
2024-01-10T06:14:05.204Z,24.28
2024-01-10T06:15:08.470Z,24.25
2024-01-10T06:16:11.781Z,24.26
2024-01-10T06:17:15.121Z,24.25
2024-01-10T06:18:18.532Z,24.25
2024-01-10T06:19:22.174Z,24.25
2024-01-10T06:20:25.722Z,24.27
2024-01-10T06:21:29.177Z,24.22
2024-01-10T06:22:32.322Z,24.23
2024-01-10T06:23:35.643Z,24.24
2024-01-10T06:24:40.410Z,24.27
2024-01-10T06:25:43.664Z,24.3
2024-01-10T06:26:46.969Z,24.32
2024-01-10T06:27:50.172Z,24.29
2024-01-10T06:28:53.517Z,24.27
2024-01-10T06:29:57.188Z,24.27
2024-01-10T06:31:00.549Z,24.29
2024-01-10T06:32:04.240Z,24.28
2024-01-10T06:33:07.725Z,24.29
2024-01-10T06:34:11.610Z,24.28
2024-01-10T06:35:17.294Z,24.29
2024-01-10T06:36:20.732Z,24.32
2024-01-10T06:37:24.011Z,24.32
2024-01-10T06:38:27.464Z,24.29
2024-01-10T06:39:31.105Z,24.29
2024-01-10T06:40:34.397Z,24.34
2024-01-10T06:41:37.725Z,24.27
2024-01-10T06:42:40.984Z,24.2
2024-01-10T06:43:44.328Z,24.29
2024-01-10T06:44:47.675Z,24.26
2024-01-10T06:45:52.484Z,24.32
2024-01-10T06:46:55.744Z,24.03
2024-01-10T06:47:59.129Z,24.07
2024-01-10T06:49:02.516Z,24.11
2024-01-10T06:50:07.555Z,24.18
2024-01-10T06:51:10.943Z,24.11
2024-01-10T06:52:14.344Z,24.27
2024-01-10T06:53:17.719Z,24.29
2024-01-10T06:55:31.122Z,24.22
2024-01-10T06:56:34.215Z,24.31
2024-01-10T06:57:37.418Z,24.16
2024-01-10T06:58:42.005Z,24.14
2024-01-10T06:59:45.226Z,24.29
2024-01-10T07:00:48.566Z,24.15
2024-01-10T07:01:52.047Z,24.09
2024-01-10T07:02:55.604Z,24.18
2024-01-10T07:03:58.986Z,24.2
2024-01-10T07:05:02.332Z,24.16
2024-01-10T07:06:05.785Z,24.05
2024-01-10T07:07:09.247Z,24
2024-01-10T07:08:12.932Z,24.06
2024-01-10T07:09:18.371Z,24.04
2024-01-10T07:10:21.641Z,24.09
2024-01-10T07:11:25.020Z,24.1
2024-01-10T07:12:29.685Z,24.16
2024-01-10T07:13:32.936Z,24.15
2024-01-10T07:14:36.357Z,24.19
2024-01-10T07:15:39.699Z,24.19
2024-01-10T07:16:43.296Z,24.23
2024-01-10T07:17:46.909Z,24.24
2024-01-10T07:18:50.254Z,24.26
2024-01-10T07:19:53.892Z,24.29
2024-01-10T07:20:57.413Z,24.28
2024-01-10T07:22:00.746Z,24.25
2024-01-10T07:23:04.042Z,24.28
2024-01-10T07:24:07.477Z,24.27
2024-01-10T07:25:12.278Z,24.28
2024-01-10T07:26:15.672Z,24.29
2024-01-10T07:27:19.172Z,24.29
2024-01-10T07:28:22.486Z,24.25
2024-01-10T07:29:25.901Z,24.21
2024-01-10T07:30:29.369Z,24.18
2024-01-10T07:31:32.872Z,24.21
2024-01-10T07:32:36.238Z,24.21
2024-01-10T07:33:39.928Z,24.24
2024-01-10T07:34:43.750Z,24.26
2024-01-10T07:35:47.120Z,24.24
2024-01-10T07:36:50.276Z,24.26
2024-01-10T07:37:53.596Z,24.22
2024-01-10T07:38:56.891Z,24.18
2024-01-10T07:40:00.173Z,24.21
2024-01-10T07:41:03.421Z,24.23
2024-01-10T07:42:06.846Z,24.21
2024-01-10T07:43:10.150Z,24.21
2024-01-10T07:44:13.441Z,24.22
2024-01-10T07:45:16.868Z,24.1
2024-01-10T07:46:20.665Z,24.13
2024-01-10T07:47:24.151Z,24.18
2024-01-10T07:48:29.552Z,24.24
2024-01-10T07:49:33.130Z,24.29
2024-01-10T07:50:36.554Z,24.15
2024-01-10T07:51:39.884Z,24.16
2024-01-10T07:52:43.309Z,24.12
2024-01-10T07:53:46.725Z,24.2
2024-01-10T07:54:49.895Z,24.18
2024-01-10T07:55:53.177Z,24.22
2024-01-10T07:56:56.759Z,24.1
2024-01-10T07:58:00.050Z,24
2024-01-10T07:59:06.358Z,23.85
2024-01-10T08:00:10.042Z,23.94
2024-01-10T08:01:13.338Z,23.97
2024-01-10T08:02:16.919Z,23.85
2024-01-10T08:03:20.369Z,23.94
2024-01-10T08:04:23.887Z,23.83
2024-01-10T08:05:27.272Z,24.05
2024-01-10T08:06:33.113Z,24.06
2024-01-10T08:07:37.480Z,24.1
2024-01-10T08:08:40.772Z,23.92
2024-01-10T08:09:46.041Z,23.85
2024-01-10T08:10:49.285Z,23.94
2024-01-10T08:11:52.604Z,24.02
2024-01-10T08:12:55.850Z,24.07
2024-01-10T08:13:59.090Z,23.88
2024-01-10T08:15:02.395Z,24.04
2024-01-10T08:16:05.575Z,24.07
2024-01-10T08:17:10.312Z,24.06
2024-01-10T08:18:14.037Z,24.08
2024-01-10T08:19:17.700Z,24.13
2024-01-10T08:20:21.448Z,24.07
2024-01-10T08:21:25.167Z,24.07
2024-01-10T08:22:28.744Z,24.09
2024-01-10T08:23:32.304Z,24.16
2024-01-10T08:24:35.593Z,24.14
2024-01-10T08:25:40.463Z,24.18
2024-01-10T08:26:43.785Z,24.27
2024-01-10T08:27:48.875Z,24.27
2024-01-10T08:28:52.041Z,24.25
2024-01-10T08:29:55.478Z,24.25
2024-01-10T08:31:03.512Z,24.25
2024-01-10T08:32:08.651Z,24.29
2024-01-10T08:33:12.298Z,24.31
2024-01-10T08:34:15.896Z,24.3
2024-01-10T08:35:19.381Z,24.27
2024-01-10T08:36:22.853Z,24.27
2024-01-10T08:37:26.130Z,24.26
2024-01-10T08:38:29.624Z,24.23
2024-01-10T08:39:33.024Z,24.25
2024-01-10T08:40:36.741Z,24.21
2024-01-10T08:41:43.345Z,24.24
2024-01-10T08:42:47.957Z,24.25
2024-01-10T08:43:52.783Z,24.27
2024-01-10T08:44:56.258Z,24.29
2024-01-10T08:45:59.625Z,24.25
2024-01-10T08:47:04.360Z,24.24
2024-01-10T08:48:10.283Z,24.24
2024-01-10T08:49:14.642Z,24.28
2024-01-10T08:50:18.207Z,24.28
2024-01-10T08:51:21.786Z,24.26
2024-01-10T08:52:25.048Z,24.17
2024-01-10T08:53:28.437Z,24.25
2024-01-10T08:54:33.533Z,24.23
2024-01-10T08:55:36.774Z,24.13
2024-01-10T08:56:40.072Z,24.27
2024-01-10T08:57:43.397Z,24.25
2024-01-10T08:58:46.697Z,24.29
2024-01-10T08:59:50.088Z,24.22
2024-01-10T09:00:53.410Z,24.2
2024-01-10T09:01:56.920Z,24.18
2024-01-10T09:03:00.366Z,24.2
2024-01-10T09:04:03.690Z,24.21
2024-01-10T09:05:08.822Z,24.2
2024-01-10T09:06:12.626Z,24.19
2024-01-10T09:07:17.863Z,24.24
2024-01-10T09:08:21.383Z,24.24
2024-01-10T09:09:24.809Z,24.23
2024-01-10T09:10:28.066Z,24.23
2024-01-10T09:11:36.822Z,24.24
2024-01-10T09:12:47.555Z,24.3
2024-01-10T09:13:51.130Z,24.33
2024-01-10T09:14:54.595Z,24.32
2024-01-10T09:15:57.883Z,24.18
2024-01-10T09:17:03.113Z,24.21
2024-01-10T09:18:06.513Z,24.28
2024-01-10T09:19:11.537Z,24.29
2024-01-10T09:20:16.921Z,24.25
2024-01-10T09:21:21.532Z,24.13
2024-01-10T09:22:24.760Z,24.13
2024-01-10T09:23:28.015Z,24.26
2024-01-10T09:24:31.666Z,24.28
2024-01-10T09:25:34.959Z,24.23
2024-01-10T09:26:38.236Z,24.23
2024-01-10T09:27:41.554Z,24.25
2024-01-10T09:28:44.889Z,24.21
2024-01-10T09:29:48.160Z,24.29
2024-01-10T09:30:51.503Z,24.34
2024-01-10T09:31:55.025Z,24.38
2024-01-10T09:32:58.581Z,24.29
2024-01-10T09:34:02.194Z,24.33
2024-01-10T09:35:05.786Z,24.39
2024-01-10T09:36:09.164Z,24.39
2024-01-10T09:37:12.537Z,24.37
2024-01-10T09:38:15.879Z,24.38
2024-01-10T09:39:19.318Z,24.33
2024-01-10T09:40:24.141Z,24.21
2024-01-10T09:41:27.935Z,24.16
2024-01-10T09:42:35.018Z,24.33
2024-01-10T09:43:39.944Z,23.96
2024-01-10T09:44:43.315Z,23.59
2024-01-10T09:45:52.360Z,22.52
2024-01-10T09:46:55.520Z,22.34
2024-01-10T09:48:00.855Z,22.22
2024-01-10T09:49:04.538Z,22.27
2024-01-10T09:50:08.049Z,22.68
2024-01-10T09:51:13.778Z,22.87
2024-01-10T09:52:17.091Z,23.07
2024-01-10T09:53:21.820Z,23.19
2024-01-10T09:54:25.304Z,23.24
2024-01-10T09:55:30.619Z,23.28
2024-01-10T09:56:33.925Z,23.33
2024-01-10T09:57:37.331Z,23.5
2024-01-10T09:58:40.786Z,23.51
2024-01-10T09:59:45.317Z,23.56
2024-01-10T10:00:48.565Z,23.63
2024-01-10T10:01:51.858Z,23.7
2024-01-10T10:02:57.339Z,23.7
2024-01-10T10:04:00.464Z,23.54
2024-01-10T10:05:03.680Z,23.44
2024-01-10T10:06:07.437Z,23.45
2024-01-10T10:07:11.064Z,23.52
2024-01-10T10:08:14.712Z,23.56
2024-01-10T10:09:18.334Z,23.58
2024-01-10T10:10:21.582Z,23.61
2024-01-10T10:11:26.441Z,23.56
2024-01-10T10:12:29.917Z,23.58
2024-01-10T10:13:33.326Z,23.63
2024-01-10T10:14:36.655Z,23.66
2024-01-10T10:15:40.094Z,23.67
2024-01-10T10:16:43.524Z,23.67
2024-01-10T10:17:46.810Z,23.67
2024-01-10T10:18:51.480Z,23.68
2024-01-10T10:19:56.252Z,23.65
2024-01-10T10:20:59.955Z,23.67
2024-01-10T10:22:03.208Z,23.62
2024-01-10T10:23:06.504Z,23.66
2024-01-10T10:24:09.942Z,23.69
2024-01-10T10:25:13.141Z,23.6
2024-01-10T10:26:16.579Z,23.6
2024-01-10T10:27:19.984Z,23.63
2024-01-10T10:28:25.514Z,23.59
2024-01-10T10:29:39.391Z,23.69
2024-01-10T10:30:44.250Z,23.7
2024-01-10T10:31:47.455Z,23.71
2024-01-10T10:32:50.746Z,23.68
2024-01-10T10:33:54.406Z,23.67
2024-01-10T10:34:58.072Z,23.63
2024-01-10T10:36:01.468Z,23.61
2024-01-10T10:37:04.756Z,23.59
2024-01-10T10:38:07.997Z,23.57
2024-01-10T10:39:11.370Z,23.58
2024-01-10T10:40:15.423Z,23.54
2024-01-10T10:41:20.864Z,23.56
2024-01-10T10:42:25.054Z,23.54
2024-01-10T10:43:29.967Z,23.41
2024-01-10T10:44:33.304Z,23.46
2024-01-10T10:45:36.835Z,23.45
2024-01-10T10:46:40.158Z,23.42
2024-01-10T10:47:46.095Z,23.42
2024-01-10T10:48:50.640Z,23.36
2024-01-10T10:49:54.395Z,23.43
2024-01-10T10:50:57.886Z,23.49
2024-01-10T10:52:01.202Z,23.48
2024-01-10T10:53:04.873Z,23.49
2024-01-10T10:54:09.199Z,23.49
2024-01-10T10:55:12.445Z,23.46
2024-01-10T10:56:15.805Z,23.45
2024-01-10T10:57:19.308Z,23.44
2024-01-10T10:58:24.968Z,23.4
2024-01-10T10:59:30.530Z,23.42
2024-01-10T11:00:33.973Z,23.36
2024-01-10T11:01:37.382Z,23.4
2024-01-10T11:02:42.328Z,23.36
2024-01-10T11:03:46.570Z,23.4
2024-01-10T11:04:50.121Z,23.45
2024-01-10T11:05:53.686Z,23.41
2024-01-10T11:06:57.759Z,23.37
2024-01-10T11:08:01.383Z,23.42
2024-01-10T11:09:04.588Z,23.35
2024-01-10T11:10:08.003Z,23.35
2024-01-10T11:11:11.332Z,23.37
2024-01-10T11:12:14.736Z,23.37
2024-01-10T11:13:17.962Z,23.38
2024-01-10T11:14:24.704Z,23.37
2024-01-10T11:15:30.035Z,23.25
2024-01-10T11:16:35.274Z,23.34
2024-01-10T11:17:38.638Z,23.29
2024-01-10T11:18:42.321Z,23.33
2024-01-10T11:19:45.747Z,23.36
2024-01-10T11:20:49.112Z,23.41
2024-01-10T11:21:52.582Z,23.39
2024-01-10T11:22:55.902Z,23.41
2024-01-10T11:24:00.834Z,23.44
2024-01-10T11:25:04.123Z,23.43
2024-01-10T11:26:07.362Z,23.4
2024-01-10T11:27:10.836Z,23.41
2024-01-10T11:28:14.131Z,23.35
2024-01-10T11:29:17.489Z,23.28
2024-01-10T11:30:23.406Z,23.28
2024-01-10T11:31:31.132Z,23.21
2024-01-10T11:32:34.473Z,23.17
2024-01-10T11:33:38.034Z,23.13
2024-01-10T11:34:43.796Z,23.03
2024-01-10T11:35:47.400Z,23.06
2024-01-10T11:36:50.694Z,23.04
2024-01-10T11:37:55.601Z,23.01
2024-01-10T11:38:58.910Z,22.91
2024-01-10T11:40:02.251Z,22.95
2024-01-10T11:41:06.860Z,23.01
2024-01-10T11:42:13.196Z,23
2024-01-10T11:43:16.453Z,23.09
2024-01-10T11:44:19.878Z,23.2
2024-01-10T11:45:23.416Z,23.21
2024-01-10T11:46:26.857Z,23.28
2024-01-10T11:47:30.154Z,23.17
2024-01-10T11:48:33.921Z,23.27
2024-01-10T11:49:37.661Z,23.23
2024-01-10T11:50:40.930Z,23.22
2024-01-10T11:51:46.308Z,23.17
2024-01-10T11:52:50.992Z,23.26
2024-01-10T11:53:54.258Z,23.18
2024-01-10T11:54:57.568Z,23.09
2024-01-10T11:56:00.867Z,23.12
2024-01-10T11:57:04.312Z,23.17
2024-01-10T11:58:07.848Z,23.08
2024-01-10T11:59:13.165Z,23.18
2024-01-10T12:00:16.563Z,23.31
2024-01-10T12:01:19.853Z,23.36
2024-01-10T12:02:23.271Z,23.33
2024-01-10T12:03:27.155Z,23.36
2024-01-10T12:04:34.509Z,23.42
2024-01-10T12:05:48.414Z,23.56
2024-01-10T12:06:52.017Z,23.61
2024-01-10T12:07:57.405Z,23.47
2024-01-10T12:09:00.717Z,23.43
2024-01-10T12:10:03.925Z,23.46
2024-01-10T12:11:07.294Z,23.51
2024-01-10T12:12:10.722Z,23.44
2024-01-10T12:13:13.997Z,23.35
2024-01-10T12:14:17.321Z,23.38
2024-01-10T12:15:20.794Z,23.4
2024-01-10T12:16:24.111Z,23.4
2024-01-10T12:17:27.413Z,23.35
2024-01-10T12:18:30.852Z,23.37
2024-01-10T12:19:34.543Z,23.44
2024-01-10T12:20:39.352Z,23.36
2024-01-10T12:21:42.685Z,23.04
2024-01-10T12:22:45.795Z,22.83
2024-01-10T12:23:49.284Z,22.71
2024-01-10T12:24:52.798Z,22.76
2024-01-10T12:25:56.162Z,22.82
2024-01-10T12:26:59.482Z,22.96
2024-01-10T12:28:02.782Z,22.87
2024-01-10T12:29:06.298Z,22.84
2024-01-10T12:30:09.647Z,22.88
2024-01-10T12:31:13.192Z,22.94
2024-01-10T12:32:16.537Z,22.97
2024-01-10T12:33:19.933Z,23
2024-01-10T12:34:23.587Z,22.98
2024-01-10T12:35:27.074Z,22.93
2024-01-10T12:36:30.618Z,22.96
2024-01-10T12:37:33.992Z,23.02
2024-01-10T12:38:37.406Z,22.95
2024-01-10T12:39:40.782Z,22.81
2024-01-10T12:40:45.510Z,22.86
2024-01-10T12:41:48.929Z,22.91
2024-01-10T12:42:52.217Z,22.83
2024-01-10T12:43:55.547Z,22.89
2024-01-10T12:45:00.385Z,22.87
2024-01-10T12:46:03.738Z,22.92
2024-01-10T12:47:07.116Z,22.91
2024-01-10T12:48:10.682Z,22.97
2024-01-10T12:49:14.420Z,23.04
2024-01-10T12:50:17.981Z,23.02
2024-01-10T12:51:21.352Z,23.03
2024-01-10T12:52:24.789Z,22.98
2024-01-10T12:53:28.136Z,23.06
2024-01-10T12:54:33.189Z,23.09
2024-01-10T12:55:36.542Z,23.05
2024-01-10T12:56:39.889Z,23.08
2024-01-10T12:57:43.212Z,23.08
2024-01-10T12:58:46.520Z,23.11
2024-01-10T12:59:50.066Z,23.1
2024-01-10T13:00:53.347Z,23.09
2024-01-10T13:01:56.820Z,23.07
2024-01-10T13:03:00.373Z,23.06
2024-01-10T13:04:05.536Z,23
2024-01-10T13:05:14.329Z,23.08
2024-01-10T13:06:17.723Z,23.15
2024-01-10T13:07:20.998Z,23.08
2024-01-10T13:08:24.478Z,23.08
2024-01-10T13:09:28.187Z,23.12
2024-01-10T13:10:31.479Z,23.09
2024-01-10T13:11:35.050Z,23.1
2024-01-10T13:12:38.646Z,23.15
2024-01-10T13:13:41.902Z,23.14
2024-01-10T13:14:45.309Z,23.13
2024-01-10T13:15:48.601Z,23.08
2024-01-10T13:16:56.786Z,23.07
2024-01-10T13:18:04.425Z,23.11
2024-01-10T13:19:10.392Z,23.19
2024-01-10T13:20:13.900Z,23.15
2024-01-10T13:21:17.373Z,23.15
2024-01-10T13:22:20.603Z,23.12
2024-01-10T13:23:25.919Z,23.01
2024-01-10T13:24:29.560Z,23.04
2024-01-10T13:25:32.862Z,23
2024-01-10T13:26:36.149Z,22.98
2024-01-10T13:27:39.662Z,23.01
2024-01-10T13:28:44.606Z,23.04
2024-01-10T13:29:47.808Z,23.05
2024-01-10T13:30:51.036Z,23.05
2024-01-10T13:31:54.229Z,23.06
2024-01-10T13:32:57.727Z,23.11
2024-01-10T13:34:01.226Z,23.13
2024-01-10T13:35:04.919Z,23.14
2024-01-10T13:36:08.525Z,23.1
2024-01-10T13:37:11.698Z,23.04
2024-01-10T13:38:14.998Z,23.08
2024-01-10T13:39:18.483Z,23.05
2024-01-10T13:40:21.731Z,23.08
2024-01-10T13:41:25.119Z,23.1
2024-01-10T13:42:28.529Z,23.11
2024-01-10T13:43:33.784Z,23.11
2024-01-10T13:44:37.052Z,23.05
2024-01-10T13:45:40.449Z,23.08